createdAt,value
2023-03-26T00:00:43.084Z,12.82
2023-03-26T00:01:46.909Z,12.93
2023-03-26T00:02:50.640Z,12.18
2023-03-26T00:03:55.039Z,13.13
2023-03-26T00:04:58.974Z,12.73
2023-03-26T00:06:08.885Z,13.43
2023-03-26T00:07:12.814Z,13.10
2023-03-26T00:08:17.162Z,11.98
2023-03-26T00:09:20.957Z,12.32
2023-03-26T00:10:24.622Z,14.05
2023-03-26T00:11:30.052Z,13.65
2023-03-26T00:12:33.750Z,13.00
2023-03-26T00:13:37.566Z,13.40
2023-03-26T00:14:41.379Z,13.82
2023-03-26T00:15:45.070Z,13.82
2023-03-26T00:16:48.689Z,12.75
2023-03-26T00:17:52.423Z,12.50
2023-03-26T00:18:56.208Z,12.80
2023-03-26T00:19:59.968Z,12.93
2023-03-26T00:21:05.583Z,14.15
2023-03-26T00:22:10.968Z,13.18
2023-03-26T00:23:14.684Z,13.10
2023-03-26T00:24:18.356Z,13.30
2023-03-26T00:25:22.035Z,12.50
2023-03-26T00:26:25.757Z,12.68
2023-03-26T00:27:29.335Z,13.73
2023-03-26T00:28:32.918Z,13.00
2023-03-26T00:29:36.719Z,12.02
2023-03-26T00:30:40.405Z,12.65
2023-03-26T00:31:44.099Z,13.15
2023-03-26T00:32:53.966Z,12.15
2023-03-26T00:33:57.809Z,12.97
2023-03-26T00:35:01.504Z,12.07
2023-03-26T00:36:07.463Z,12.63
2023-03-26T00:37:12.801Z,12.60
2023-03-26T00:38:16.605Z,12.32
2023-03-26T00:39:20.288Z,12.83
2023-03-26T00:40:23.974Z,12.80
2023-03-26T00:41:27.692Z,12.30
2023-03-26T00:42:31.579Z,11.90
2023-03-26T00:43:36.715Z,12.32
2023-03-26T00:44:40.373Z,12.33
2023-03-26T00:45:44.165Z,12.10
2023-03-26T00:46:48.280Z,12.40
2023-03-26T00:47:52.075Z,12.68
2023-03-26T00:48:55.736Z,11.60
2023-03-26T00:49:59.396Z,12.13
2023-03-26T00:51:03.056Z,12.20
2023-03-26T00:52:07.391Z,12.23
2023-03-26T00:53:13.011Z,12.43
2023-03-26T00:54:16.678Z,12.98
2023-03-26T00:55:20.544Z,12.97
2023-03-26T00:56:24.418Z,12.75
2023-03-26T00:57:34.991Z,11.75
2023-03-26T00:58:39.357Z,12.20
2023-03-26T00:59:43.123Z,12.32
2023-03-26T01:00:50.730Z,12.30
2023-03-26T01:01:54.410Z,12.18
2023-03-26T01:02:58.233Z,11.30
2023-03-26T01:04:24.944Z,11.05
2023-03-26T01:05:45.006Z,11.50
2023-03-26T01:06:48.700Z,12.73
2023-03-26T01:07:52.676Z,12.65
2023-03-26T01:08:58.474Z,12.35
2023-03-26T01:10:02.347Z,11.52
2023-03-26T01:11:09.727Z,12.27
2023-03-26T01:12:16.441Z,12.50
2023-03-26T01:13:21.965Z,12.00
2023-03-26T01:14:27.289Z,11.38
2023-03-26T01:15:31.473Z,11.95
2023-03-26T01:16:38.089Z,11.25
2023-03-26T01:17:41.872Z,11.17
2023-03-26T01:18:45.601Z,12.40
2023-03-26T01:19:54.246Z,11.98
2023-03-26T01:20:58.048Z,12.00
2023-03-26T01:22:01.935Z,12.00
2023-03-26T01:23:08.206Z,12.20
2023-03-26T01:24:13.590Z,12.50
2023-03-26T01:25:17.613Z,11.85
2023-03-26T01:26:31.432Z,13.00
2023-03-26T01:27:39.369Z,11.32
2023-03-26T01:28:43.578Z,12.13
2023-03-26T01:29:53.971Z,11.88
2023-03-26T01:31:07.399Z,12.02
2023-03-26T01:32:31.127Z,12.00
2023-03-26T01:33:41.876Z,12.73
2023-03-26T01:34:56.864Z,13.13
2023-03-26T01:36:04.983Z,12.52
2023-03-26T01:37:18.791Z,13.65
2023-03-26T01:38:30.044Z,12.50
2023-03-26T01:39:42.843Z,12.25
2023-03-26T01:40:50.228Z,12.43
2023-03-26T01:41:58.135Z,13.63
2023-03-26T01:43:09.884Z,12.55
2023-03-26T01:44:21.357Z,13.57
2023-03-26T01:45:29.157Z,12.50
2023-03-26T01:46:35.024Z,12.37
2023-03-26T01:47:40.736Z,12.40
2023-03-26T01:48:46.257Z,12.73
2023-03-26T01:49:50.088Z,12.85
2023-03-26T01:50:53.844Z,12.20
2023-03-26T01:51:58.641Z,12.43
2023-03-26T01:53:02.635Z,13.70
2023-03-26T01:54:09.467Z,12.10
2023-03-26T01:55:15.178Z,11.57
2023-03-26T01:56:24.442Z,12.40
2023-03-26T01:57:37.336Z,13.20
2023-03-26T01:58:52.318Z,13.38
2023-03-26T02:00:16.763Z,13.32
2023-03-26T02:01:27.542Z,12.90
2023-03-26T02:02:37.552Z,12.30
2023-03-26T02:03:47.672Z,13.07
2023-03-26T02:04:56.415Z,13.15
2023-03-26T02:06:10.438Z,12.88
2023-03-26T02:07:21.441Z,12.68
2023-03-26T02:08:29.566Z,12.75
2023-03-26T02:09:40.131Z,12.40
2023-03-26T02:10:47.685Z,12.85
2023-03-26T02:11:52.196Z,12.10
2023-03-26T02:12:56.798Z,12.85
2023-03-26T02:14:01.368Z,13.00
2023-03-26T02:15:05.842Z,12.73
2023-03-26T02:16:12.803Z,12.88
2023-03-26T02:17:16.591Z,13.38
2023-03-26T02:18:20.428Z,13.00
2023-03-26T02:19:24.290Z,12.45
2023-03-26T02:20:28.098Z,12.17
2023-03-26T02:21:31.757Z,13.10
2023-03-26T02:22:35.470Z,12.68
2023-03-26T02:23:39.395Z,13.15
2023-03-26T02:24:43.288Z,12.85
2023-03-26T02:25:48.680Z,13.30
2023-03-26T02:26:52.308Z,11.65
2023-03-26T02:27:56.195Z,12.25
2023-03-26T02:29:00.371Z,12.63
2023-03-26T02:30:04.272Z,12.20
2023-03-26T02:31:08.736Z,11.67
2023-03-26T02:32:12.837Z,11.43
2023-03-26T02:33:16.532Z,11.50
2023-03-26T02:34:20.180Z,11.57
2023-03-26T02:35:24.115Z,11.82
2023-03-26T02:36:28.502Z,12.57
2023-03-26T02:37:32.810Z,12.43
2023-03-26T02:38:36.502Z,12.70
2023-03-26T02:39:40.228Z,11.95
2023-03-26T02:40:43.857Z,12.43
2023-03-26T02:41:49.209Z,12.90
2023-03-26T02:42:52.934Z,12.02
2023-03-26T02:43:56.642Z,11.73
2023-03-26T02:45:00.297Z,11.32
2023-03-26T02:46:04.283Z,12.15
2023-03-26T02:47:07.962Z,11.10
2023-03-26T02:48:11.564Z,12.27
2023-03-26T02:49:15.304Z,11.63
2023-03-26T02:50:19.052Z,12.55
2023-03-26T02:51:22.756Z,11.88
2023-03-26T02:52:26.521Z,12.60
2023-03-26T02:53:30.554Z,12.07
2023-03-26T02:54:34.653Z,12.32
2023-03-26T02:55:38.316Z,12.13
2023-03-26T02:56:42.078Z,12.25
2023-03-26T02:57:47.414Z,11.90
2023-03-26T02:58:51.120Z,11.52
2023-03-26T02:59:54.811Z,11.48
2023-03-26T03:00:58.467Z,11.70
2023-03-26T03:02:02.232Z,13.15
2023-03-26T03:03:06.034Z,12.10
2023-03-26T03:04:09.734Z,13.13
2023-03-26T03:05:13.425Z,12.95
2023-03-26T03:06:18.116Z,12.15
2023-03-26T03:07:21.767Z,13.07
2023-03-26T03:08:27.749Z,13.10
2023-03-26T03:09:31.569Z,12.70
2023-03-26T03:10:35.221Z,13.27
2023-03-26T03:11:39.874Z,13.68
2023-03-26T03:12:43.904Z,13.45
2023-03-26T03:13:49.365Z,13.27
2023-03-26T03:14:52.987Z,13.02
2023-03-26T03:15:57.317Z,13.32
2023-03-26T03:17:01.267Z,13.52
2023-03-26T03:18:05.162Z,13.50
2023-03-26T03:19:08.948Z,12.70
2023-03-26T03:20:13.072Z,13.20
2023-03-26T03:21:16.765Z,12.90
2023-03-26T03:22:20.677Z,13.00
2023-03-26T03:23:24.531Z,13.98
2023-03-26T03:24:28.215Z,12.50
2023-03-26T03:25:31.838Z,13.27
2023-03-26T03:26:35.514Z,12.55
2023-03-26T03:27:39.196Z,13.43
2023-03-26T03:28:43.226Z,12.15
2023-03-26T03:29:48.610Z,12.90
2023-03-26T03:30:52.486Z,13.60
2023-03-26T03:31:56.848Z,13.38
2023-03-26T03:33:00.470Z,12.93
2023-03-26T03:34:04.310Z,14.25
2023-03-26T03:35:09.000Z,14.10
2023-03-26T03:36:19.875Z,12.57
2023-03-26T03:37:24.964Z,13.32
2023-03-26T03:38:28.637Z,12.57
2023-03-26T03:39:32.341Z,12.70
2023-03-26T03:40:35.934Z,12.43
2023-03-26T03:41:39.554Z,12.13
2023-03-26T03:42:43.164Z,13.07
2023-03-26T03:43:47.093Z,12.40
2023-03-26T03:44:52.455Z,12.90
2023-03-26T03:45:56.400Z,12.07
2023-03-26T03:47:00.284Z,12.43
2023-03-26T03:48:04.123Z,12.88
2023-03-26T03:49:08.214Z,13.80
2023-03-26T03:50:12.180Z,12.23
2023-03-26T03:51:15.816Z,12.90
2023-03-26T03:52:19.544Z,12.50
2023-03-26T03:53:23.778Z,12.10
2023-03-26T03:54:27.411Z,12.60
2023-03-26T03:55:31.093Z,12.70
2023-03-26T03:56:34.802Z,13.17
2023-03-26T03:57:38.769Z,12.80
2023-03-26T03:58:42.540Z,12.05
2023-03-26T03:59:47.460Z,12.95
2023-03-26T04:00:53.893Z,12.95
2023-03-26T04:01:57.551Z,13.10
2023-03-26T04:03:01.239Z,11.75
2023-03-26T04:04:05.245Z,12.32
2023-03-26T04:05:09.581Z,13.02
2023-03-26T04:06:13.744Z,12.77
2023-03-26T04:07:17.431Z,12.27
2023-03-26T04:08:21.185Z,12.25
2023-03-26T04:09:24.821Z,12.35
2023-03-26T04:10:28.561Z,12.20
2023-03-26T04:11:32.291Z,11.60
2023-03-26T04:12:36.045Z,11.87
2023-03-26T04:13:39.912Z,12.13
2023-03-26T04:14:43.617Z,11.15
2023-03-26T04:15:47.347Z,11.30
2023-03-26T04:16:52.691Z,11.85
2023-03-26T04:17:56.439Z,11.07
2023-03-26T04:19:00.130Z,12.80
2023-03-26T04:20:03.905Z,12.10
2023-03-26T04:21:07.900Z,11.10
2023-03-26T04:22:11.593Z,11.77
2023-03-26T04:23:15.657Z,12.00
2023-03-26T04:24:19.368Z,11.75
2023-03-26T04:25:23.041Z,11.35
2023-03-26T04:26:26.800Z,11.95
2023-03-26T04:27:33.189Z,11.98
2023-03-26T04:28:43.600Z,12.07
2023-03-26T04:29:49.554Z,11.50
2023-03-26T04:30:53.576Z,11.00
2023-03-26T04:31:59.240Z,11.98
2023-03-26T04:33:04.272Z,12.13
2023-03-26T04:34:10.110Z,11.30
2023-03-26T04:35:15.503Z,11.40
2023-03-26T04:36:19.672Z,11.38
2023-03-26T04:37:28.723Z,11.48
2023-03-26T04:38:36.090Z,10.70
2023-03-26T04:39:41.131Z,11.70
2023-03-26T04:40:47.087Z,11.65
2023-03-26T04:41:52.535Z,10.60
2023-03-26T04:43:01.052Z,11.77
2023-03-26T04:44:13.052Z,11.80
2023-03-26T04:45:21.203Z,11.50
2023-03-26T04:46:30.132Z,11.85
2023-03-26T04:47:37.323Z,11.88
2023-03-26T04:48:45.428Z,11.80
2023-03-26T04:49:53.282Z,12.18
2023-03-26T04:51:01.082Z,11.17
2023-03-26T04:52:06.576Z,11.43
2023-03-26T04:53:17.856Z,12.00
2023-03-26T04:54:26.770Z,11.82
2023-03-26T04:55:37.698Z,11.93
2023-03-26T04:56:50.568Z,12.00
2023-03-26T04:57:59.685Z,12.00
2023-03-26T04:59:08.982Z,12.13
2023-03-26T05:00:17.449Z,12.50
2023-03-26T05:01:23.057Z,12.15
2023-03-26T05:02:36.690Z,11.97
2023-03-26T05:03:46.922Z,12.07
2023-03-26T05:04:52.316Z,11.75
2023-03-26T05:06:00.802Z,12.50
2023-03-26T05:07:07.177Z,11.98
2023-03-26T05:08:13.368Z,13.00
2023-03-26T05:09:20.036Z,12.32
2023-03-26T05:10:25.876Z,13.82
2023-03-26T05:11:34.323Z,12.70
2023-03-26T05:12:39.698Z,12.25
2023-03-26T05:13:45.114Z,12.90
2023-03-26T05:14:51.813Z,12.63
2023-03-26T05:15:57.372Z,12.80
2023-03-26T05:17:04.549Z,12.15
2023-03-26T05:18:11.442Z,13.43
2023-03-26T05:19:18.597Z,12.73
2023-03-26T05:20:26.309Z,12.18
2023-03-26T05:21:32.060Z,13.70
2023-03-26T05:22:38.231Z,13.32
2023-03-26T05:23:43.675Z,13.43
2023-03-26T05:24:49.083Z,12.87
2023-03-26T05:25:54.481Z,12.50
2023-03-26T05:27:08.954Z,13.15
2023-03-26T05:28:14.419Z,12.50
2023-03-26T05:29:20.252Z,13.15
2023-03-26T05:30:25.853Z,12.73
2023-03-26T05:31:35.278Z,13.40
2023-03-26T05:32:40.760Z,12.13
2023-03-26T05:33:46.559Z,12.38
2023-03-26T05:34:53.630Z,12.38
2023-03-26T05:36:03.565Z,12.27
2023-03-26T05:37:09.043Z,12.80
2023-03-26T05:38:14.668Z,13.18
2023-03-26T05:39:25.660Z,12.90
2023-03-26T05:40:31.157Z,12.52
2023-03-26T05:41:36.844Z,13.20
2023-03-26T05:42:42.891Z,12.45
2023-03-26T05:43:50.027Z,12.85
2023-03-26T05:44:56.786Z,12.07
2023-03-26T05:46:05.611Z,12.75
2023-03-26T05:47:12.251Z,12.07
2023-03-26T05:48:17.716Z,12.32
2023-03-26T05:49:25.967Z,12.50
2023-03-26T05:50:34.647Z,12.25
2023-03-26T05:51:39.981Z,11.50
2023-03-26T05:52:45.395Z,11.63
2023-03-26T05:53:50.882Z,12.57
2023-03-26T05:54:56.344Z,11.98
2023-03-26T05:56:03.061Z,10.80
2023-03-26T05:57:11.884Z,12.05
2023-03-26T05:58:17.596Z,11.13
2023-03-26T05:59:22.983Z,12.10
2023-03-26T06:00:28.652Z,11.90
2023-03-26T06:01:35.554Z,11.73
2023-03-26T06:02:42.291Z,11.18
2023-03-26T06:03:48.563Z,11.70
2023-03-26T06:04:55.401Z,11.55
2023-03-26T06:06:02.639Z,11.90
2023-03-26T06:07:08.132Z,11.50
2023-03-26T06:08:13.568Z,11.10
2023-03-26T06:09:19.012Z,11.57
2023-03-26T06:10:24.416Z,12.00
2023-03-26T06:11:30.146Z,12.20
2023-03-26T06:12:35.301Z,11.35
2023-03-26T06:13:41.714Z,11.70
2023-03-26T06:14:48.174Z,11.80
2023-03-26T06:15:56.943Z,11.45
2023-03-26T06:17:02.361Z,11.70
2023-03-26T06:18:08.128Z,11.27
2023-03-26T06:19:15.294Z,11.70
2023-03-26T06:20:20.786Z,11.27
2023-03-26T06:21:28.211Z,12.20
2023-03-26T06:22:33.664Z,12.60
2023-03-26T06:23:42.530Z,11.95
2023-03-26T06:24:49.310Z,11.88
2023-03-26T06:25:54.797Z,11.87
2023-03-26T06:27:00.263Z,11.30
2023-03-26T06:28:07.639Z,12.27
2023-03-26T06:29:13.099Z,11.75
2023-03-26T06:30:18.838Z,11.57
2023-03-26T06:31:31.100Z,11.10
2023-03-26T06:32:36.659Z,12.15
2023-03-26T06:33:42.227Z,11.45
2023-03-26T06:34:47.678Z,10.85
2023-03-26T06:35:53.081Z,11.27
2023-03-26T06:37:00.134Z,10.70
2023-03-26T06:38:09.207Z,10.90
2023-03-26T06:39:14.662Z,10.75
2023-03-26T06:40:20.558Z,11.27
2023-03-26T06:41:27.385Z,10.98
2023-03-26T06:43:08.175Z,11.23
2023-03-26T06:44:01.836Z,10.77
2023-03-26T06:45:08.393Z,11.25
2023-03-26T06:46:13.953Z,11.43
2023-03-26T06:47:19.410Z,11.10
2023-03-26T06:48:28.163Z,11.17
2023-03-26T06:49:33.788Z,11.25
2023-03-26T06:50:39.230Z,10.98
2023-03-26T06:51:48.135Z,11.55
2023-03-26T06:52:58.119Z,11.65
2023-03-26T06:54:03.596Z,10.50
2023-03-26T06:55:09.763Z,10.75
2023-03-26T06:56:15.200Z,11.05
2023-03-26T06:57:20.715Z,10.90
2023-03-26T06:58:26.097Z,10.77
2023-03-26T06:59:33.194Z,11.00
2023-03-26T07:00:38.735Z,10.85
2023-03-26T07:01:45.329Z,11.18
2023-03-26T07:02:52.345Z,11.02
2023-03-26T07:04:00.060Z,10.45
2023-03-26T07:05:05.837Z,11.37
2023-03-26T07:06:11.867Z,11.10
2023-03-26T07:07:17.341Z,11.20
2023-03-26T07:08:26.413Z,10.70
2023-03-26T07:09:32.037Z,11.13
2023-03-26T07:10:37.679Z,11.57
2023-03-26T07:11:43.129Z,11.18
2023-03-26T07:12:48.636Z,11.13
2023-03-26T07:13:54.820Z,11.50
2023-03-26T07:15:00.785Z,11.02
2023-03-26T07:16:06.497Z,11.10
2023-03-26T07:17:12.172Z,10.82
2023-03-26T07:18:17.611Z,10.93
2023-03-26T07:19:23.170Z,10.52
2023-03-26T07:20:28.971Z,10.82
2023-03-26T07:21:35.188Z,10.50
2023-03-26T07:22:41.251Z,10.85
2023-03-26T07:23:56.537Z,10.55
2023-03-26T07:25:02.638Z,10.68
2023-03-26T07:26:23.209Z,10.18
2023-03-26T07:27:40.999Z,10.17
2023-03-26T07:29:03.816Z,10.60
2023-03-26T07:30:17.534Z,10.50
2023-03-26T07:31:31.280Z,10.52
2023-03-26T07:32:43.702Z,10.40
2023-03-26T07:33:56.676Z,10.60
2023-03-26T07:35:07.908Z,10.35
2023-03-26T07:36:27.218Z,10.70
2023-03-26T07:37:44.597Z,10.63
2023-03-26T07:39:06.819Z,10.43
2023-03-26T07:40:22.091Z,10.37
2023-03-26T07:41:34.684Z,10.43
2023-03-26T07:42:55.652Z,10.40
2023-03-26T07:44:35.714Z,10.57
2023-03-26T07:45:43.331Z,10.63
2023-03-26T07:46:50.254Z,10.50
2023-03-26T07:47:56.459Z,10.52
2023-03-26T07:49:03.067Z,11.48
2023-03-26T07:50:10.046Z,10.70
2023-03-26T07:51:19.040Z,10.27
2023-03-26T07:52:25.297Z,10.33
2023-03-26T07:53:31.172Z,10.75
2023-03-26T07:54:38.979Z,10.57
2023-03-26T07:55:52.614Z,10.15
2023-03-26T07:57:04.360Z,10.48
2023-03-26T07:58:24.509Z,10.50
2023-03-26T07:59:39.666Z,10.68
2023-03-26T08:00:54.090Z,10.55
2023-03-26T08:02:21.407Z,10.63
2023-03-26T08:04:00.030Z,10.35
2023-03-26T08:05:30.043Z,9.87
2023-03-26T08:06:38.639Z,10.63
2023-03-26T08:07:57.677Z,9.43
2023-03-26T08:09:10.252Z,9.88
2023-03-26T08:10:23.786Z,10.20
2023-03-26T08:11:42.734Z,9.27
2023-03-26T08:12:57.479Z,10.05
2023-03-26T08:14:10.825Z,10.00
2023-03-26T08:15:24.769Z,9.25
2023-03-26T08:16:38.874Z,8.70
2023-03-26T08:17:50.537Z,9.77
2023-03-26T08:19:04.614Z,9.60
2023-03-26T08:20:20.666Z,9.85
2023-03-26T08:21:32.835Z,9.20
2023-03-26T08:22:43.186Z,9.18
2023-03-26T08:24:00.746Z,9.17
2023-03-26T08:25:28.114Z,9.45
2023-03-26T08:26:39.270Z,9.07
2023-03-26T08:27:49.746Z,9.32
2023-03-26T08:29:09.480Z,9.32
2023-03-26T08:30:19.670Z,9.10
2023-03-26T08:31:33.660Z,10.05
2023-03-26T08:32:40.035Z,9.70
2023-03-26T08:33:45.524Z,9.60
2023-03-26T08:34:51.857Z,9.10
2023-03-26T08:35:57.307Z,8.97
2023-03-26T08:37:02.834Z,9.18
2023-03-26T08:38:08.947Z,9.10
2023-03-26T08:39:14.644Z,9.15
2023-03-26T08:40:44.395Z,9.95
2023-03-26T08:42:37.218Z,10.10
2023-03-26T08:44:06.215Z,9.05
2023-03-26T08:45:43.411Z,9.13
2023-03-26T08:47:20.628Z,9.32
2023-03-26T08:48:51.789Z,9.60
2023-03-26T08:50:40.154Z,8.47
2023-03-26T08:52:11.488Z,9.43
2023-03-26T08:53:58.494Z,8.88
2023-03-26T08:55:33.210Z,8.48
2023-03-26T08:56:51.237Z,8.77
2023-03-26T08:58:37.309Z,9.07
2023-03-26T09:00:04.766Z,8.15
2023-03-26T09:01:44.984Z,10.18
2023-03-26T09:03:36.606Z,9.10
2023-03-26T09:05:13.908Z,9.23
2023-03-26T09:06:58.916Z,9.43
2023-03-26T09:08:30.088Z,9.30
2023-03-26T09:10:16.966Z,9.50
2023-03-26T09:11:59.950Z,9.70
2023-03-26T09:13:45.792Z,9.38
2023-03-26T09:15:08.855Z,8.87
2023-03-26T09:16:41.464Z,8.65
2023-03-26T09:18:11.063Z,9.05
2023-03-26T09:19:46.382Z,9.35
2023-03-26T09:21:16.194Z,8.75
2023-03-26T09:23:02.853Z,9.17
2023-03-26T09:24:49.074Z,9.40
2023-03-26T09:26:14.989Z,9.63
2023-03-26T09:27:37.935Z,8.85
2023-03-26T09:29:26.733Z,9.38
2023-03-26T09:31:08.349Z,9.17
2023-03-26T09:32:58.973Z,8.80
2023-03-26T09:34:24.627Z,9.20
2023-03-26T09:36:04.489Z,8.73
2023-03-26T09:37:27.252Z,9.20
2023-03-26T09:38:44.803Z,9.37
2023-03-26T09:40:03.113Z,8.88
2023-03-26T09:41:16.066Z,9.07
2023-03-26T09:42:32.526Z,9.10
2023-03-26T09:43:57.517Z,9.20
2023-03-26T09:45:43.943Z,9.50
2023-03-26T09:47:06.750Z,9.43
2023-03-26T09:48:22.647Z,9.40
2023-03-26T09:49:43.728Z,9.07
2023-03-26T09:51:03.090Z,8.68
2023-03-26T09:52:36.475Z,9.50
2023-03-26T09:54:06.138Z,8.50
2023-03-26T09:55:32.157Z,8.63
2023-03-26T09:56:50.045Z,8.25
2023-03-26T09:58:16.817Z,8.95
2023-03-26T09:59:56.955Z,9.00
2023-03-26T10:01:07.896Z,8.68
2023-03-26T10:02:45.400Z,8.55
2023-03-26T10:04:02.934Z,9.10
2023-03-26T10:05:22.219Z,8.52
2023-03-26T10:06:43.351Z,8.70
2023-03-26T10:08:05.033Z,8.93
2023-03-26T10:09:43.509Z,9.18
2023-03-26T10:10:55.999Z,8.75
2023-03-26T10:12:24.496Z,9.02
2023-03-26T10:13:42.387Z,8.93
2023-03-26T10:14:57.181Z,8.45
2023-03-26T10:16:22.480Z,8.88
2023-03-26T10:17:50.315Z,9.20
2023-03-26T10:19:22.314Z,9.30
2023-03-26T10:20:56.184Z,8.67
2023-03-26T10:22:10.650Z,9.50
2023-03-26T10:23:33.381Z,9.55
2023-03-26T10:25:01.112Z,9.25
2023-03-26T10:26:24.774Z,10.18
2023-03-26T10:27:45.373Z,9.47
2023-03-26T10:29:25.209Z,9.38
2023-03-26T10:30:58.651Z,9.48
2023-03-26T10:32:16.058Z,9.25
2023-03-26T10:33:32.805Z,9.52
2023-03-26T10:35:08.307Z,9.13
2023-03-26T10:36:36.831Z,8.93
2023-03-26T10:37:52.866Z,8.70
2023-03-26T10:39:36.886Z,9.13
2023-03-26T10:40:53.986Z,9.32
2023-03-26T10:42:09.999Z,8.37
2023-03-26T10:43:34.110Z,9.60
2023-03-26T10:45:07.357Z,8.85
2023-03-26T10:46:38.163Z,8.90
2023-03-26T10:48:06.832Z,8.65
2023-03-26T10:50:11.695Z,8.63
2023-03-26T10:51:36.176Z,9.45
2023-03-26T10:52:49.048Z,9.32
2023-03-26T10:53:58.411Z,9.13
2023-03-26T10:55:12.483Z,9.20
2023-03-26T10:56:25.062Z,9.33
2023-03-26T10:57:42.801Z,9.25
2023-03-26T10:58:50.066Z,9.40
2023-03-26T10:59:58.673Z,8.05
2023-03-26T11:01:06.330Z,9.50
2023-03-26T11:02:30.744Z,9.07
2023-03-26T11:03:53.334Z,8.40
2023-03-26T11:05:09.449Z,8.73
2023-03-26T11:06:33.761Z,8.30
2023-03-26T11:07:45.285Z,9.52
2023-03-26T11:08:59.920Z,8.90
2023-03-26T11:10:10.747Z,9.15
2023-03-26T11:11:24.632Z,8.90
2023-03-26T11:12:38.521Z,8.07
2023-03-26T11:13:52.598Z,8.18
2023-03-26T11:15:09.533Z,9.07
2023-03-26T11:16:21.157Z,8.90
2023-03-26T11:17:41.605Z,8.45
2023-03-26T11:18:54.886Z,8.50
2023-03-26T11:20:05.808Z,9.32
2023-03-26T11:21:20.766Z,8.30
2023-03-26T11:22:36.877Z,8.82
2023-03-26T11:24:05.015Z,8.30
2023-03-26T11:25:47.460Z,9.65
2023-03-26T11:26:57.000Z,8.85
2023-03-26T11:28:35.608Z,8.17
2023-03-26T11:29:49.250Z,8.15
2023-03-26T11:30:59.442Z,8.00
2023-03-26T11:32:06.889Z,7.97
2023-03-26T11:33:17.568Z,8.30
2023-03-26T11:34:29.704Z,8.00
2023-03-26T11:35:39.853Z,8.20
2023-03-26T11:36:50.984Z,9.40
2023-03-26T11:37:56.788Z,9.20
2023-03-26T11:39:05.997Z,9.10
2023-03-26T11:40:14.927Z,9.50
2023-03-26T11:41:23.922Z,8.15
2023-03-26T11:42:28.557Z,9.43
2023-03-26T11:43:36.342Z,8.68
2023-03-26T11:44:43.686Z,9.23
2023-03-26T11:45:48.896Z,8.93
2023-03-26T11:46:59.064Z,8.90
2023-03-26T11:48:10.340Z,8.73
2023-03-26T11:49:19.745Z,9.02
2023-03-26T11:50:27.348Z,9.50
2023-03-26T11:51:34.405Z,9.53
2023-03-26T11:52:39.787Z,9.82
2023-03-26T11:53:45.330Z,9.73
2023-03-26T11:54:49.261Z,9.20
2023-03-26T11:56:00.939Z,9.20
2023-03-26T11:57:09.154Z,9.60
2023-03-26T11:58:30.823Z,9.57
2023-03-26T11:59:48.815Z,10.05
2023-03-26T12:00:55.467Z,9.50
2023-03-26T12:02:15.684Z,9.30
2023-03-26T12:03:19.386Z,10.10
2023-03-26T12:04:34.671Z,9.35
2023-03-26T12:05:50.587Z,9.40
2023-03-26T12:06:59.158Z,9.82
2023-03-26T12:08:18.100Z,9.98
2023-03-26T12:09:21.877Z,10.00
2023-03-26T12:10:35.268Z,10.10
2023-03-26T12:11:39.414Z,9.52
2023-03-26T12:12:48.460Z,9.52
2023-03-26T12:13:57.445Z,9.43
2023-03-26T12:15:01.933Z,9.20
2023-03-26T12:16:14.353Z,9.40
2023-03-26T12:17:32.161Z,10.15
2023-03-26T12:18:38.858Z,9.82
2023-03-26T12:19:46.324Z,9.43
2023-03-26T12:20:51.349Z,9.73
2023-03-26T12:21:55.749Z,9.70
2023-03-26T12:23:00.230Z,9.55
2023-03-26T12:24:06.730Z,9.45
2023-03-26T12:25:18.517Z,9.02
2023-03-26T12:26:30.497Z,10.13
2023-03-26T12:27:34.095Z,10.55
2023-03-26T12:28:37.675Z,9.35
2023-03-26T12:29:44.398Z,10.20
2023-03-26T12:31:00.326Z,10.70
2023-03-26T12:32:15.783Z,10.27
2023-03-26T12:33:25.236Z,9.70
2023-03-26T12:34:33.616Z,9.57
2023-03-26T12:35:44.191Z,9.55
2023-03-26T12:36:55.212Z,10.63
2023-03-26T12:38:18.058Z,9.37
2023-03-26T12:40:09.178Z,9.88
2023-03-26T12:44:44.404Z,10.30
2023-03-26T12:44:44.732Z,10.45
2023-03-26T12:44:53.116Z,10.38
2023-03-26T12:46:44.322Z,10.03
2023-03-26T12:47:56.968Z,9.38
2023-03-26T12:48:44.901Z,10.18
2023-03-26T12:49:50.972Z,10.32
2023-03-26T12:51:10.473Z,10.85
2023-03-26T12:52:30.921Z,10.20
2023-03-26T12:54:03.551Z,10.25
2023-03-26T12:55:25.231Z,10.45
2023-03-26T12:56:32.749Z,10.80
2023-03-26T12:57:40.783Z,11.32
2023-03-26T12:59:03.873Z,11.50
2023-03-26T13:00:27.283Z,10.48
2023-03-26T13:01:46.849Z,10.70
2023-03-26T13:03:10.168Z,10.27
2023-03-26T13:04:25.629Z,10.68
2023-03-26T13:05:40.498Z,10.93
2023-03-26T13:07:00.370Z,10.32
2023-03-26T13:08:33.967Z,10.35
2023-03-26T13:09:52.897Z,10.52
2023-03-26T13:11:07.361Z,9.90
2023-03-26T13:12:20.925Z,10.83
2023-03-26T13:13:45.221Z,10.38
2023-03-26T13:15:22.335Z,9.60
2023-03-26T13:16:35.276Z,10.68
2023-03-26T13:17:46.040Z,9.70
2023-03-26T13:18:57.364Z,10.80
2023-03-26T13:20:08.663Z,10.25
2023-03-26T13:21:20.202Z,10.50
2023-03-26T13:22:33.864Z,9.70
2023-03-26T13:23:47.676Z,10.55
2023-03-26T13:25:00.804Z,9.87
2023-03-26T13:26:20.363Z,9.70
2023-03-26T13:27:43.964Z,10.20
2023-03-26T13:29:00.659Z,10.73
2023-03-26T13:30:14.342Z,11.63
2023-03-26T13:31:30.124Z,11.07
2023-03-26T13:32:49.416Z,10.50
2023-03-26T13:34:02.658Z,10.23
2023-03-26T13:35:18.924Z,9.52
2023-03-26T13:36:31.714Z,11.15
2023-03-26T13:37:43.018Z,10.87
2023-03-26T13:39:07.895Z,10.65
2023-03-26T13:40:27.020Z,10.93
2023-03-26T13:41:41.182Z,9.40
2023-03-26T13:42:59.228Z,9.90
2023-03-26T13:44:17.155Z,10.33
2023-03-26T13:45:37.080Z,9.52
2023-03-26T13:46:45.519Z,9.85
2023-03-26T13:47:56.367Z,9.00
2023-03-26T13:49:03.970Z,9.25
2023-03-26T13:50:21.170Z,9.73
2023-03-26T13:51:31.915Z,10.07
2023-03-26T13:52:45.951Z,10.40
2023-03-26T13:53:55.632Z,10.10
2023-03-26T13:55:17.794Z,9.30
2023-03-26T13:56:29.910Z,10.40
2023-03-26T13:57:36.612Z,9.70
2023-03-26T13:58:45.124Z,10.13
2023-03-26T13:59:55.319Z,10.52
2023-03-26T14:01:06.970Z,10.63
2023-03-26T14:02:14.778Z,9.97
2023-03-26T14:03:26.793Z,10.05
2023-03-26T14:04:36.358Z,9.93
2023-03-26T14:05:44.987Z,8.95
2023-03-26T14:06:54.306Z,8.85
2023-03-26T14:08:06.340Z,8.57
2023-03-26T14:09:17.566Z,9.38
2023-03-26T14:10:27.017Z,9.52
2023-03-26T14:11:42.604Z,10.00
2023-03-26T14:12:59.822Z,9.23
2023-03-26T14:14:11.001Z,9.40
2023-03-26T14:15:26.444Z,8.90
2023-03-26T14:16:37.591Z,9.02
2023-03-26T14:19:55.640Z,9.50
2023-03-26T14:21:41.808Z,9.57
2023-03-26T14:22:59.835Z,8.73
2023-03-26T14:24:26.014Z,9.50
2023-03-26T14:25:47.991Z,8.85
2023-03-26T14:27:14.883Z,8.90
2023-03-26T14:28:39.561Z,9.63
2023-03-26T14:29:57.060Z,9.98
2023-03-26T14:31:12.626Z,9.10
2023-03-26T14:32:35.259Z,9.73
2023-03-26T14:34:02.142Z,10.23
2023-03-26T14:35:24.741Z,10.10
2023-03-26T14:36:51.268Z,10.20
2023-03-26T14:38:21.416Z,10.18
2023-03-26T14:39:48.898Z,10.05
2023-03-26T14:41:06.935Z,9.52
2023-03-26T14:42:20.738Z,10.13
2023-03-26T14:43:51.878Z,9.00
2023-03-26T14:45:38.292Z,10.00
2023-03-26T14:46:58.175Z,8.70
2023-03-26T14:48:28.954Z,9.95
2023-03-26T14:50:00.944Z,9.60
2023-03-26T14:51:15.718Z,9.25
2023-03-26T14:52:26.999Z,9.10
2023-03-26T14:53:36.065Z,9.80
2023-03-26T14:54:47.734Z,9.32
2023-03-26T14:56:24.460Z,8.73
2023-03-26T14:58:01.852Z,9.57
2023-03-26T14:59:34.247Z,8.70
2023-03-26T15:01:27.562Z,9.65
2023-03-26T15:03:06.584Z,9.88
2023-03-26T15:04:42.401Z,9.67
2023-03-26T15:06:25.063Z,8.63
2023-03-26T15:07:54.564Z,8.95
2023-03-26T15:09:50.893Z,9.00
2023-03-26T15:11:15.034Z,9.73
2023-03-26T15:12:33.758Z,9.30
2023-03-26T15:14:19.476Z,9.02
2023-03-26T15:15:55.915Z,9.07
2023-03-26T15:17:31.510Z,9.65
2023-03-26T15:19:03.156Z,9.27
2023-03-26T15:20:57.906Z,9.20
2023-03-26T15:22:44.609Z,9.30
2023-03-26T15:24:12.405Z,9.10
2023-03-26T15:26:10.169Z,8.85
2023-03-26T15:27:52.048Z,8.93
2023-03-26T15:29:26.196Z,8.77
2023-03-26T15:31:02.964Z,8.63
2023-03-26T15:32:36.666Z,9.68
2023-03-26T15:34:17.929Z,9.55
2023-03-26T15:36:08.784Z,9.30
2023-03-26T15:38:04.369Z,9.00
2023-03-26T15:39:39.218Z,9.27
2023-03-26T15:40:57.208Z,9.85
2023-03-26T15:42:13.391Z,9.00
2023-03-26T15:43:19.024Z,9.57
2023-03-26T15:44:53.911Z,11.30
2023-03-26T15:46:34.350Z,8.93
2023-03-26T15:48:00.459Z,9.50
2023-03-26T15:49:13.344Z,10.13
2023-03-26T15:50:30.078Z,9.07
2023-03-26T15:51:47.882Z,9.00
2023-03-26T15:53:01.130Z,9.40